createdAt,value
2018-07-30T00:03:15.321Z,95.70
2018-07-30T00:07:19.552Z,95.90
2018-07-30T00:11:24.084Z,95.70
2018-07-30T00:15:28.361Z,95.60
2018-07-30T00:19:32.649Z,95.90
2018-07-30T00:23:37.036Z,95.70
2018-07-30T00:27:41.354Z,96.10
2018-07-30T00:31:45.606Z,95.20
2018-07-30T00:35:49.949Z,95.30
2018-07-30T00:39:54.570Z,94.80
2018-07-30T00:43:58.886Z,95.00
2018-07-30T00:48:03.325Z,95.30
2018-07-30T00:52:07.643Z,95.90
2018-07-30T00:56:11.901Z,96.10
2018-07-30T01:00:16.393Z,96.00
2018-07-30T01:04:20.632Z,95.50
2018-07-30T01:08:24.912Z,94.80
2018-07-30T01:12:29.160Z,95.10
2018-07-30T01:16:33.418Z,95.30
2018-07-30T01:20:38.169Z,95.90
2018-07-30T01:24:42.527Z,96.10
2018-07-30T01:28:46.755Z,95.70
2018-07-30T01:32:51.140Z,96.10
2018-07-30T01:36:55.503Z,96.20
2018-07-30T01:40:59.777Z,96.40
2018-07-30T01:45:04.148Z,96.80
2018-07-30T01:49:08.468Z,97.10
2018-07-30T01:53:12.670Z,96.80
2018-07-30T01:57:17.049Z,96.40
2018-07-30T02:01:21.275Z,96.30
2018-07-30T02:05:25.602Z,96.80
2018-07-30T02:09:29.926Z,97.20
2018-07-30T02:13:34.147Z,97.40
2018-07-30T02:17:38.452Z,97.70
2018-07-30T02:21:42.844Z,98.30
2018-07-30T02:25:47.083Z,98.40
2018-07-30T02:29:51.442Z,98.30
2018-07-30T02:33:55.993Z,98.50
2018-07-30T02:38:00.349Z,98.80
2018-07-30T02:42:04.943Z,98.90
2018-07-30T02:46:09.360Z,99.60
2018-07-30T02:50:13.636Z,99.60
2018-07-30T02:54:17.894Z,99.70
2018-07-30T02:58:22.160Z,99.90
2018-07-30T03:02:26.519Z,99.90
2018-07-30T03:06:30.735Z,99.90
2018-07-30T03:10:35.170Z,99.90
2018-07-30T03:14:39.484Z,99.90
2018-07-30T03:18:43.736Z,99.90
2018-07-30T03:22:48.091Z,99.90
2018-07-30T03:26:52.406Z,99.90
2018-07-30T03:30:56.777Z,99.90
2018-07-30T03:35:01.079Z,99.90
2018-07-30T03:39:06.809Z,99.90
2018-07-30T03:43:11.173Z,99.90
2018-07-30T03:47:15.433Z,99.90
2018-07-30T03:51:19.822Z,99.90
2018-07-30T03:55:24.015Z,99.90
2018-07-30T03:59:28.380Z,99.90
2018-07-30T04:03:32.708Z,99.90
2018-07-30T04:07:37.369Z,99.90
2018-07-30T04:11:41.632Z,99.90
2018-07-30T04:15:45.945Z,99.90
2018-07-30T04:19:50.197Z,99.90
2018-07-30T04:23:54.413Z,99.90
2018-07-30T04:27:58.724Z,99.50
2018-07-30T04:32:02.945Z,99.00
2018-07-30T04:36:07.306Z,98.80
2018-07-30T04:40:11.825Z,97.60
2018-07-30T04:44:16.052Z,95.90
2018-07-30T04:48:20.354Z,94.80
2018-07-30T04:52:24.606Z,93.10
2018-07-30T04:56:28.858Z,93.80
2018-07-30T05:00:33.246Z,93.10
2018-07-30T05:04:37.704Z,93.00
2018-07-30T05:08:41.888Z,93.50
2018-07-30T05:12:46.204Z,93.90
2018-07-30T05:16:50.379Z,94.50
2018-07-30T05:20:54.777Z,94.90
2018-07-30T05:24:58.990Z,94.30
2018-07-30T05:29:03.187Z,94.10
2018-07-30T05:33:07.479Z,94.30
2018-07-30T05:37:11.716Z,94.60
2018-07-30T05:41:21.808Z,95.20
2018-07-30T05:45:27.032Z,95.00
2018-07-30T05:49:31.240Z,94.30
2018-07-30T05:53:35.916Z,93.90
2018-07-30T05:57:40.106Z,94.20
2018-07-30T06:01:44.328Z,93.30
2018-07-30T06:05:48.514Z,93.40
2018-07-30T06:09:52.736Z,93.60
2018-07-30T06:13:56.994Z,92.40
2018-07-30T06:18:01.415Z,91.10
2018-07-30T06:22:05.689Z,89.80
2018-07-30T06:26:10.029Z,85.10
2018-07-30T06:30:14.389Z,83.70
2018-07-30T06:34:18.793Z,83.80
2018-07-30T06:38:23.088Z,79.60
2018-07-30T06:42:27.348Z,84.10
2018-07-30T06:46:31.604Z,84.30
2018-07-30T06:50:35.825Z,84.30
2018-07-30T06:54:40.075Z,83.40
2018-07-30T06:58:44.436Z,79.50
2018-07-30T07:02:48.789Z,78.10
2018-07-30T07:06:53.059Z,75.50
2018-07-30T07:10:57.303Z,75.40
2018-07-30T07:15:01.574Z,74.70
2018-07-30T07:19:05.865Z,72.40
2018-07-30T07:23:10.188Z,73.00
2018-07-30T07:27:14.377Z,72.00
2018-07-30T07:31:18.773Z,69.50
2018-07-30T07:35:23.002Z,72.70
2018-07-30T07:39:27.284Z,68.10
2018-07-30T07:43:31.486Z,70.60
2018-07-30T07:47:35.761Z,71.30
2018-07-30T07:51:40.104Z,65.40
2018-07-30T07:55:44.397Z,65.50
2018-07-30T07:59:48.625Z,59.30
2018-07-30T08:03:52.941Z,57.80
2018-07-30T08:07:57.270Z,55.80
2018-07-30T08:12:01.621Z,55.20
2018-07-30T08:16:06.257Z,56.80
2018-07-30T08:20:10.625Z,55.80
2018-07-30T08:24:15.100Z,55.60
2018-07-30T08:28:19.325Z,53.40
2018-07-30T08:32:23.589Z,50.40
2018-07-30T08:36:28.407Z,50.00
2018-07-30T08:40:32.794Z,47.90
2018-07-30T08:44:37.210Z,49.00
2018-07-30T08:48:41.452Z,46.20
2018-07-30T08:52:45.719Z,43.60
2018-07-30T08:56:50.094Z,42.60
2018-07-30T09:00:54.375Z,43.00
2018-07-30T09:04:58.756Z,40.80
2018-07-30T09:09:03.021Z,39.20
2018-07-30T09:13:07.751Z,40.70
2018-07-30T09:17:11.978Z,39.30
2018-07-30T09:21:16.213Z,37.60
2018-07-30T09:25:20.574Z,36.80
2018-07-30T09:29:24.815Z,36.90
2018-07-30T09:33:29.213Z,35.90
2018-07-30T09:37:33.522Z,36.00
2018-07-30T09:41:37.895Z,35.60
2018-07-30T09:45:42.195Z,36.60
2018-07-30T09:49:46.454Z,36.60
2018-07-30T09:53:50.922Z,35.60
2018-07-30T09:57:55.237Z,34.10
2018-07-30T10:01:59.588Z,35.00
2018-07-30T10:06:04.076Z,37.60
2018-07-30T10:10:08.470Z,36.50
2018-07-30T10:14:12.745Z,35.10
2018-07-30T10:18:17.029Z,32.50
2018-07-30T10:22:21.507Z,33.00
2018-07-30T10:26:25.813Z,37.20
2018-07-30T10:30:30.241Z,36.10
2018-07-30T10:34:34.565Z,31.70
2018-07-30T10:38:38.855Z,28.70
2018-07-30T10:42:43.126Z,28.20
2018-07-30T10:46:47.474Z,28.10
2018-07-30T10:50:51.732Z,27.90
2018-07-30T10:54:56.503Z,29.30
2018-07-30T10:59:00.867Z,29.60
2018-07-30T11:03:05.130Z,27.40
2018-07-30T11:07:09.445Z,28.30
2018-07-30T11:11:13.742Z,29.40
2018-07-30T11:15:17.982Z,29.60
2018-07-30T11:19:22.381Z,30.00
2018-07-30T11:23:26.637Z,34.00
2018-07-30T11:27:30.995Z,32.40
2018-07-30T11:31:35.236Z,36.20
2018-07-30T11:35:39.524Z,41.60
2018-07-30T11:39:43.994Z,36.60
2018-07-30T11:43:48.226Z,36.80
2018-07-30T11:47:52.534Z,33.20
2018-07-30T11:51:56.863Z,31.60
2018-07-30T11:56:01.128Z,30.10
2018-07-30T12:00:05.486Z,31.30
2018-07-30T12:04:09.774Z,30.20
2018-07-30T12:08:14.108Z,27.40
2018-07-30T12:12:18.516Z,25.90
2018-07-30T12:16:22.872Z,25.20
2018-07-30T12:20:27.159Z,25.70
2018-07-30T12:24:31.496Z,26.80
2018-07-30T12:28:35.687Z,30.60
2018-07-30T12:32:39.934Z,31.50
2018-07-30T12:36:44.243Z,34.30
2018-07-30T12:40:48.467Z,32.20
2018-07-30T12:44:52.695Z,34.10
2018-07-30T12:48:57.048Z,34.90
2018-07-30T12:53:01.232Z,37.80
2018-07-30T12:57:05.592Z,39.20
2018-07-30T13:01:09.819Z,38.90
2018-07-30T13:05:14.089Z,40.20
2018-07-30T13:09:18.375Z,44.50
2018-07-30T13:13:22.698Z,47.50
2018-07-30T13:17:26.948Z,48.30
2018-07-30T13:21:31.164Z,47.70
2018-07-30T13:25:35.720Z,48.50
2018-07-30T13:29:40.017Z,37.80
2018-07-30T13:33:44.317Z,27.70
2018-07-30T13:37:48.554Z,24.20
2018-07-30T13:41:52.740Z,23.50
2018-07-30T13:45:57.160Z,25.60
2018-07-30T13:50:01.375Z,25.10
2018-07-30T13:54:05.695Z,27.10
2018-07-30T13:58:10.045Z,28.10
2018-07-30T14:02:14.307Z,28.00
2018-07-30T14:06:18.806Z,31.50
2018-07-30T14:10:22.966Z,38.20
2018-07-30T14:14:27.502Z,37.70
2018-07-30T14:18:31.796Z,40.40
2018-07-30T14:22:36.038Z,41.00
2018-07-30T14:26:40.454Z,45.20
2018-07-30T14:30:44.749Z,55.00
2018-07-30T14:34:49.178Z,61.50
2018-07-30T14:38:54.582Z,71.40
2018-07-30T14:42:58.866Z,79.50
2018-07-30T14:47:03.261Z,90.90
2018-07-30T14:51:07.578Z,99.90
2018-07-30T14:55:11.861Z,99.10
2018-07-30T14:59:16.663Z,99.90
2018-07-30T15:03:21.596Z,99.10
2018-07-30T15:07:26.301Z,97.20
2018-07-30T15:11:30.721Z,99.90
2018-07-30T15:15:35.029Z,95.80
2018-07-30T15:19:39.284Z,99.90
2018-07-30T15:23:43.757Z,98.90
2018-07-30T15:27:48.029Z,94.40
2018-07-30T15:31:52.447Z,86.90
2018-07-30T15:35:56.678Z,81.30
2018-07-30T15:40:01.055Z,76.00
2018-07-30T15:44:05.446Z,81.00
2018-07-30T15:48:10.537Z,83.90
2018-07-30T15:52:15.029Z,86.80
2018-07-30T15:56:19.276Z,86.50
2018-07-30T16:00:23.599Z,89.60
2018-07-30T16:04:28.005Z,91.70
2018-07-30T16:08:32.288Z,93.90
2018-07-30T16:12:36.568Z,92.40
2018-07-30T16:16:40.875Z,84.60
2018-07-30T16:20:45.121Z,76.30
2018-07-30T16:24:49.470Z,71.80
2018-07-30T16:28:53.709Z,73.30
2018-07-30T16:32:57.989Z,77.40
2018-07-30T16:37:02.310Z,78.60
2018-07-30T16:41:06.881Z,81.00
2018-07-30T16:45:11.309Z,83.00
2018-07-30T16:49:16.605Z,84.70
2018-07-30T16:53:21.042Z,89.30
2018-07-30T16:57:25.308Z,83.90
2018-07-30T17:01:29.632Z,86.00
2018-07-30T17:05:33.954Z,90.70
2018-07-30T17:09:38.298Z,90.00
2018-07-30T17:13:42.612Z,93.40
2018-07-30T17:17:46.950Z,92.30
2018-07-30T17:21:51.248Z,93.20
2018-07-30T17:25:55.561Z,94.50
2018-07-30T17:30:00.005Z,92.50
2018-07-30T17:34:04.775Z,91.30
2018-07-30T17:38:09.430Z,93.40
2018-07-30T17:42:13.747Z,95.30
2018-07-30T17:46:18.275Z,94.50
2018-07-30T17:50:22.780Z,94.60
2018-07-30T17:54:27.327Z,95.20
2018-07-30T17:58:31.790Z,95.90
2018-07-30T18:02:36.272Z,95.00
2018-07-30T18:06:40.628Z,95.50
2018-07-30T18:10:45.328Z,95.50
2018-07-30T18:14:49.926Z,97.10
2018-07-30T18:18:54.171Z,97.80
2018-07-30T18:22:58.657Z,99.30
2018-07-30T18:27:03.082Z,99.80
2018-07-30T18:31:07.693Z,99.90
2018-07-30T18:35:12.013Z,99.90
2018-07-30T18:39:16.356Z,99.90
2018-07-30T18:43:20.609Z,99.90
2018-07-30T18:47:24.855Z,99.90
2018-07-30T18:51:29.245Z,99.90
2018-07-30T18:55:33.520Z,99.90
2018-07-30T18:59:37.775Z,99.90
2018-07-30T19:03:42.043Z,99.90
2018-07-30T19:07:46.386Z,99.90
2018-07-30T19:11:50.776Z,99.90
2018-07-30T19:15:56.324Z,99.90
2018-07-30T19:20:01.001Z,99.90
2018-07-30T19:24:05.421Z,99.90
2018-07-30T19:28:09.729Z,99.90
2018-07-30T19:32:14.353Z,99.90
2018-07-30T19:36:18.951Z,99.90
2018-07-30T19:40:24.094Z,99.90
2018-07-30T19:44:28.415Z,99.90
2018-07-30T19:48:33.645Z,99.90
2018-07-30T19:52:38.548Z,99.90
2018-07-30T19:56:43.405Z,99.90
2018-07-30T20:00:48.629Z,99.90
2018-07-30T20:04:53.172Z,99.90
2018-07-30T20:08:57.868Z,99.90
2018-07-30T20:13:02.251Z,99.90
2018-07-30T20:17:07.218Z,99.90
2018-07-30T20:21:11.538Z,99.90
2018-07-30T20:25:16.132Z,99.90
2018-07-30T20:29:20.773Z,99.90
2018-07-30T20:33:25.444Z,99.90
2018-07-30T20:37:30.720Z,99.90
2018-07-30T20:41:35.073Z,99.90
2018-07-30T20:45:39.480Z,99.90
2018-07-30T20:49:43.769Z,99.90
2018-07-30T20:53:48.076Z,99.90
2018-07-30T20:57:52.436Z,99.90
2018-07-30T21:01:56.662Z,99.90
2018-07-30T21:06:00.959Z,99.90
2018-07-30T21:10:05.411Z,99.90
2018-07-30T21:14:09.592Z,99.90
2018-07-30T21:18:13.871Z,99.90
2018-07-30T21:22:18.182Z,99.90
2018-07-30T21:26:22.604Z,99.90
2018-07-30T21:30:26.815Z,99.90
2018-07-30T21:34:31.246Z,99.90
2018-07-30T21:38:35.452Z,99.90
2018-07-30T21:42:39.664Z,99.90
2018-07-30T21:46:44.152Z,99.90
2018-07-30T21:50:48.397Z,99.90
2018-07-30T21:54:52.814Z,99.90
2018-07-30T21:58:57.066Z,99.90
2018-07-30T22:03:01.296Z,99.90
2018-07-30T22:07:05.725Z,99.90
2018-07-30T22:11:09.964Z,99.90
2018-07-30T22:15:14.180Z,99.90
2018-07-30T22:19:18.460Z,99.90
2018-07-30T22:23:22.680Z,99.90
2018-07-30T22:27:26.990Z,99.90
2018-07-30T22:31:31.245Z,99.90
2018-07-30T22:35:35.469Z,99.90
2018-07-30T22:39:39.750Z,99.90
2018-07-30T22:43:44.056Z,99.90
2018-07-30T22:47:48.357Z,99.90
2018-07-30T22:51:52.623Z,99.90
2018-07-30T22:55:57.018Z,99.90
2018-07-30T23:00:01.291Z,99.90
2018-07-30T23:04:05.601Z,99.90
2018-07-30T23:08:09.901Z,99.90
2018-07-30T23:12:14.121Z,99.90
2018-07-30T23:16:18.456Z,99.90
2018-07-30T23:20:22.666Z,99.90
2018-07-30T23:24:26.978Z,99.90
2018-07-30T23:28:31.348Z,99.90
2018-07-30T23:32:35.656Z,99.90
2018-07-30T23:36:40.055Z,99.90
2018-07-30T23:40:44.328Z,99.90
2018-07-30T23:44:48.582Z,99.90
2018-07-30T23:48:52.905Z,99.90
2018-07-30T23:52:57.179Z,99.90
2018-07-30T23:57:01.398Z,99.90
